Time;durP1;ratioP1;P1;durP2;ratioP2;P2;SDS_P1;SDS_P2;PMS_P1;PMS_P2;Temp;Humidity;BMP_temperature;BMP_pressure;BME280_temperature;BME280_humidity;BME280_pressure;Samples;Min_cycle;Max_cycle;Signal;HPM_P1;HPM_P2
2022/09/05 00:02:22;;;;;;;2.00;1.90;;;;;;;;;;5047007;28;20242;-77
2022/09/05 00:05:07;;;;;;;2.00;1.80;;;;;;;;;;5052033;28;20190;-77
2022/09/05 00:07:33;;;;;;;2.40;2.20;;;;;;;;;;5052092;28;20217;-77
2022/09/05 00:10:18;;;;;;;2.23;2.03;;;;;;;;;;5051887;28;20173;-77
2022/09/05 00:12:45;;;;;;;2.10;1.90;;;;;;;;;;5051962;28;20181;-77
2022/09/05 00:15:19;;;;;;;2.30;2.10;;;;;;;;;;5035742;28;20204;-77
2022/09/05 00:18:00;;;;;;;2.20;2.00;;;;;;;;;;5051948;28;20197;-77
2022/09/05 00:20:35;;;;;;;2.40;2.07;;;;;;;;;;5052978;28;20264;-77
2022/09/05 00:23:17;;;;;;;2.10;2.00;;;;;;;;;;5051746;28;20264;-77
2022/09/05 00:26:00;;;;;;;2.30;2.10;;;;;;;;;;5052937;28;20181;-77
2022/09/05 00:28:34;;;;;;;3.77;2.00;;;;;;;;;;5043991;28;20202;-77
2022/09/05 00:31:12;;;;;;;2.13;2.00;;;;;;;;;;5011652;28;20177;-77
2022/09/05 00:33:51;;;;;;;2.03;1.93;;;;;;;;;;5044696;28;20247;-77
2022/09/05 00:36:17;;;;;;;2.13;1.97;;;;;;;;;;5051682;28;20551;-77
2022/09/05 00:38:50;;;;;;;2.77;1.93;;;;;;;;;;5048026;28;20198;-77
2022/09/05 00:41:17;;;;;;;2.10;1.90;;;;;;;;;;5046272;28;20219;-77
2022/09/05 00:43:45;;;;;;;2.13;1.93;;;;;;;;;;5052525;28;20182;-77
2022/09/05 00:46:12;;;;;;;2.27;2.07;;;;;;;;;;5051592;28;20177;-77
2022/09/05 00:48:44;;;;;;;2.47;2.20;;;;;;;;;;5052442;28;20213;-77
2022/09/05 00:51:10;;;;;;;2.23;2.03;;;;;;;;;;5051322;28;20197;-77
2022/09/05 00:53:48;;;;;;;2.60;2.00;;;;;;;;;;5051299;28;20256;-77
2022/09/05 00:56:21;;;;;;;2.30;2.10;;;;;;;;;;5051096;28;20201;-77
2022/09/05 00:59:02;;;;;;;3.07;2.03;;;;;;;;;;5052454;28;20189;-77
2022/09/05 01:01:36;;;;;;;2.40;2.20;;;;;;;;;;5051111;28;20272;-77
2022/09/05 01:04:21;;;;;;;2.40;2.10;;;;;;;;;;5051209;28;20203;-77
2022/09/05 01:06:58;;;;;;;2.17;2.00;;;;;;;;;;5050980;28;20204;-77
2022/09/05 01:09:45;;;;;;;2.20;2.00;;;;;;;;;;5051366;28;20216;-77
2022/09/05 01:12:21;;;;;;;2.30;2.10;;;;;;;;;;5051154;28;20169;-77
2022/09/05 01:15:07;;;;;;;2.50;2.30;;;;;;;;;;5052554;28;20169;-77
2022/09/05 03:27:41;;;;;;;2.47;2.27;;;;;;;;;;6170379;22;20258;-78
2022/09/05 03:30:33;;;;;;;2.40;2.20;;;;;;;;;;5033696;28;20271;-78
2022/09/05 03:33:11;;;;;;;2.83;2.63;;;;;;;;;;5011490;28;20221;-78
2022/09/05 03:35:55;;;;;;;2.40;2.20;;;;;;;;;;5033918;28;20170;-79
2022/09/05 03:38:39;;;;;;;2.77;2.07;;;;;;;;;;5033695;28;20198;-79
2022/09/05 03:41:20;;;;;;;2.30;2.17;;;;;;;;;;5076398;22;20582;-77
2022/09/05 03:44:13;;;;;;;2.47;2.27;;;;;;;;;;4950639;29;20675;-77
2022/09/05 03:46:54;;;;;;;2.50;2.30;;;;;;;;;;4951573;28;20205;-77
2022/09/05 03:49:20;;;;;;;2.57;2.37;;;;;;;;;;4951603;28;20278;-77
2022/09/05 03:51:49;;;;;;;2.47;2.27;;;;;;;;;;4951476;28;20232;-77
2022/09/05 03:54:21;;;;;;;2.40;2.20;;;;;;;;;;4951514;28;20181;-77
2022/09/05 03:56:59;;;;;;;2.77;2.30;;;;;;;;;;4951531;28;20177;-77
2022/09/05 03:59:31;;;;;;;2.43;2.23;;;;;;;;;;4951233;28;20546;-77
2022/09/05 04:02:03;;;;;;;2.50;2.30;;;;;;;;;;4951310;28;20223;-77
2022/09/05 04:04:42;;;;;;;2.83;2.60;;;;;;;;;;4950879;29;20177;-77
2022/09/05 04:07:16;;;;;;;2.40;2.20;;;;;;;;;;4951359;28;20192;-77
2022/09/05 04:09:45;;;;;;;2.50;2.30;;;;;;;;;;4951143;28;20233;-77
2022/09/05 04:12:22;;;;;;;2.40;2.20;;;;;;;;;;4950978;28;20204;-77
2022/09/05 04:14:54;;;;;;;2.13;1.93;;;;;;;;;;4951364;28;20207;-77
2022/09/05 04:17:40;;;;;;;2.40;2.20;;;;;;;;;;4951107;28;20169;-77
2022/09/05 04:20:20;;;;;;;2.87;2.50;;;;;;;;;;4948359;28;20264;-77
2022/09/05 04:23:09;;;;;;;2.60;2.40;;;;;;;;;;4952331;28;20189;-77
2022/09/05 04:25:44;;;;;;;2.47;2.27;;;;;;;;;;4951326;28;20189;-77
2022/09/05 04:28:29;;;;;;;2.53;2.20;;;;;;;;;;4950909;28;20211;-77
2022/09/05 04:30:57;;;;;;;2.63;2.40;;;;;;;;;;4950592;28;20181;-77
2022/09/05 04:33:23;;;;;;;2.33;2.13;;;;;;;;;;4950950;29;20179;-77
2022/09/05 04:35:52;;;;;;;2.50;2.30;;;;;;;;;;4950915;28;20189;-77
2022/09/05 04:38:35;;;;;;;2.33;2.00;;;;;;;;;;4951180;28;20185;-77
2022/09/05 04:41:08;;;;;;;2.33;2.13;;;;;;;;;;4950513;28;20183;-77
2022/09/05 04:43:43;;;;;;;2.40;2.20;;;;;;;;;;4950819;28;20269;-77
2022/09/05 04:46:27;;;;;;;2.40;2.20;;;;;;;;;;4950919;28;20181;-77
2022/09/05 04:48:53;;;;;;;2.30;2.10;;;;;;;;;;4950441;28;20291;-77
2022/09/05 04:51:25;;;;;;;2.27;2.10;;;;;;;;;;4950511;28;20304;-76
2022/09/05 04:53:59;;;;;;;2.30;2.10;;;;;;;;;;4950830;28;20173;-76
2022/09/05 04:56:27;;;;;;;3.03;2.10;;;;;;;;;;4951988;28;20177;-77
2022/09/05 04:58:58;;;;;;;2.40;2.20;;;;;;;;;;4950555;28;20229;-76
2022/09/05 05:01:27;;;;;;;2.70;2.50;;;;;;;;;;4950674;28;20228;-77
2022/09/05 05:03:53;;;;;;;2.50;2.30;;;;;;;;;;4950794;28;20184;-77
2022/09/05 05:06:19;;;;;;;3.07;2.57;;;;;;;;;;4950295;28;20173;-77
2022/09/05 05:09:06;;;;;;;2.47;2.27;;;;;;;;;;4950170;28;20216;-77
2022/09/05 05:12:04;;;;;;;2.93;2.47;;;;;;;;;;4950477;28;20219;-77
2022/09/05 05:14:33;;;;;;;2.73;2.37;;;;;;;;;;4928173;28;20189;-77
2022/09/05 05:17:17;;;;;;;2.50;2.30;;;;;;;;;;4951477;28;20541;-76
2022/09/05 05:19:45;;;;;;;2.70;2.50;;;;;;;;;;4950537;28;20204;-76
2022/09/05 05:22:17;;;;;;;2.33;2.10;;;;;;;;;;4934208;29;20205;-76
2022/09/05 05:24:47;;;;;;;2.23;2.03;;;;;;;;;;4950167;28;20212;-77
2022/09/05 05:27:32;;;;;;;3.87;2.13;;;;;;;;;;4950083;28;20594;-74
2022/09/05 05:30:03;;;;;;;4.27;2.10;;;;;;;;;;4940231;28;20196;-76
2022/09/05 05:32:34;;;;;;;2.40;2.20;;;;;;;;;;4985731;28;20206;-77
2022/09/05 05:35:08;;;;;;;3.30;3.00;;;;;;;;;;5012716;28;20272;-79
2022/09/05 05:37:41;;;;;;;3.30;3.00;;;;;;;;;;4987312;28;20182;-76
2022/09/05 05:40:10;;;;;;;3.40;2.93;;;;;;;;;;5032073;28;20170;-77
2022/09/05 05:42:38;;;;;;;3.10;2.90;;;;;;;;;;5030788;28;20217;-76
2022/09/05 05:45:05;;;;;;;2.90;2.70;;;;;;;;;;5030796;28;20192;-76
2022/09/05 05:47:35;;;;;;;2.70;2.50;;;;;;;;;;5031052;28;20217;-76
2022/09/05 05:50:04;;;;;;;3.27;2.63;;;;;;;;;;5030661;28;20629;-77
2022/09/05 05:52:36;;;;;;;2.63;2.43;;;;;;;;;;5030643;28;20197;-76
2022/09/05 05:55:20;;;;;;;3.17;2.33;;;;;;;;;;5030972;28;20206;-78
2022/09/05 05:57:56;;;;;;;2.40;2.20;;;;;;;;;;5032204;28;20181;-79
2022/09/05 06:00:30;;;;;;;2.50;2.30;;;;;;;;;;5031030;28;20659;-78
2022/09/05 06:03:12;;;;;;;2.80;2.60;;;;;;;;;;5030973;28;20667;-78
2022/09/05 06:05:45;;;;;;;2.80;2.60;;;;;;;;;;5031061;28;20232;-78
2022/09/05 06:08:29;;;;;;;2.77;2.57;;;;;;;;;;5030663;28;20202;-78
2022/09/05 06:11:04;;;;;;;3.53;3.23;;;;;;;;;;5030310;28;20695;-78
2022/09/05 06:13:45;;;;;;;3.50;3.20;;;;;;;;;;5030903;28;20173;-78
2022/09/05 06:16:21;;;;;;;4.10;3.70;;;;;;;;;;5031129;28;20201;-78
2022/09/05 06:19:09;;;;;;;4.20;3.80;;;;;;;;;;5030752;28;20201;-78
2022/09/05 06:21:50;;;;;;;3.90;3.60;;;;;;;;;;5030848;28;20672;-77
2022/09/05 06:24:35;;;;;;;4.13;3.83;;;;;;;;;;5030591;28;20182;-77
2022/09/05 06:27:13;;;;;;;4.60;4.20;;;;;;;;;;5018100;28;20683;-76
2022/09/05 06:29:50;;;;;;;4.73;4.33;;;;;;;;;;4934399;29;20691;-76
2022/09/05 06:32:35;;;;;;;5.03;4.27;;;;;;;;;;5013430;28;20194;-77
2022/09/05 06:35:01;;;;;;;4.63;4.13;;;;;;;;;;5034190;28;20236;-76
2022/09/05 06:37:46;;;;;;;4.87;4.47;;;;;;;;;;5033833;28;20186;-76
2022/09/05 06:40:18;;;;;;;4.67;4.27;;;;;;;;;;4984983;28;20189;-76
2022/09/05 06:42:56;;;;;;;4.83;4.40;;;;;;;;;;4986089;28;20564;-77
2022/09/05 06:45:41;;;;;;;5.23;4.73;;;;;;;;;;4952640;28;20177;-77
2022/09/05 06:48:10;;;;;;;3.90;3.50;;;;;;;;;;4952272;28;20204;-77
2022/09/05 06:50:55;;;;;;;4.40;4.00;;;;;;;;;;4952469;28;20196;-77
2022/09/05 06:53:36;;;;;;;4.63;4.23;;;;;;;;;;4953795;28;20198;-76
2022/09/05 06:56:05;;;;;;;4.60;4.20;;;;;;;;;;4952390;28;20249;-77
2022/09/05 06:58:57;;;;;;;4.77;4.37;;;;;;;;;;4953473;28;20173;-77
2022/09/05 07:01:30;;;;;;;4.43;4.03;;;;;;;;;;4937532;28;20216;-76
2022/09/05 07:03:55;;;;;;;5.97;4.07;;;;;;;;;;4952348;28;20670;-77
2022/09/05 07:06:38;;;;;;;5.30;4.00;;;;;;;;;;4952248;28;20185;-77
2022/09/05 07:09:16;;;;;;;5.97;4.50;;;;;;;;;;4951991;28;20204;-77
2022/09/05 07:11:51;;;;;;;5.27;4.17;;;;;;;;;;4953600;28;20674;-77
2022/09/05 07:14:22;;;;;;;4.60;4.20;;;;;;;;;;4985489;28;20183;-77
2022/09/05 07:16:52;;;;;;;4.23;3.83;;;;;;;;;;4984853;28;20194;-77
2022/09/05 07:19:26;;;;;;;4.43;3.97;;;;;;;;;;4939931;29;20205;-76
2022/09/05 07:22:12;;;;;;;4.60;4.20;;;;;;;;;;4914603;28;20691;-76
2022/09/05 07:24:40;;;;;;;4.80;4.37;;;;;;;;;;4914505;29;20205;-76
2022/09/05 07:27:08;;;;;;;4.33;3.93;;;;;;;;;;4914194;28;20189;-76
2022/09/05 07:29:36;;;;;;;5.70;4.17;;;;;;;;;;4914093;28;20203;-77
2022/09/05 07:32:05;;;;;;;4.13;3.83;;;;;;;;;;4914033;29;20202;-76
2022/09/05 07:34:32;;;;;;;3.80;3.50;;;;;;;;;;4914094;28;20194;-76
2022/09/05 07:37:01;;;;;;;6.10;3.57;;;;;;;;;;4918245;29;20174;-77
2022/09/05 07:39:28;;;;;;;4.00;3.60;;;;;;;;;;4941218;28;20592;-76
2022/09/05 07:41:55;;;;;;;4.00;3.70;;;;;;;;;;4922871;28;20275;-76
2022/09/05 07:44:26;;;;;;;4.07;3.70;;;;;;;;;;4913908;29;20178;-77
2022/09/05 07:46:56;;;;;;;4.50;3.57;;;;;;;;;;4927362;29;20272;-76
2022/09/05 07:49:24;;;;;;;4.67;3.60;;;;;;;;;;4932702;29;20204;-76
2022/09/05 07:51:53;;;;;;;3.93;3.20;;;;;;;;;;4932930;28;20285;-76
2022/09/05 07:54:23;;;;;;;4.83;3.07;;;;;;;;;;4932836;29;20593;-77
2022/09/05 07:56:52;;;;;;;3.83;3.03;;;;;;;;;;4933886;29;20178;-76
2022/09/05 07:59:19;;;;;;;3.20;2.90;;;;;;;;;;4916856;29;20270;-76
2022/09/05 08:01:46;;;;;;;3.17;2.87;;;;;;;;;;4930642;29;20332;-76
2022/09/05 08:04:32;;;;;;;4.03;2.83;;;;;;;;;;4917209;28;20239;-76
2022/09/05 08:07:11;;;;;;;2.83;2.60;;;;;;;;;;4931907;29;20217;-77
2022/09/05 08:09:39;;;;;;;3.27;2.70;;;;;;;;;;4943568;29;20200;-76
2022/09/05 08:12:25;;;;;;;2.97;2.50;;;;;;;;;;4932086;29;20280;-77
2022/09/05 08:15:10;;;;;;;2.73;2.47;;;;;;;;;;4931936;29;20181;-77
2022/09/05 08:17:56;;;;;;;3.80;2.60;;;;;;;;;;4932028;29;20186;-76
2022/09/05 08:20:38;;;;;;;3.27;2.40;;;;;;;;;;4932013;29;20177;-75
2022/09/05 08:23:07;;;;;;;2.50;2.30;;;;;;;;;;4933178;29;20193;-76
2022/09/05 08:25:34;;;;;;;2.70;2.50;;;;;;;;;;4931813;29;20616;-76
2022/09/05 08:28:15;;;;;;;2.60;2.40;;;;;;;;;;4931821;29;20205;-76
2022/09/05 08:30:47;;;;;;;3.22;2.30;;;;;;;;;;4932714;29;20177;-76
2022/09/05 08:33:16;;;;;;;2.70;2.45;;;;;;;;;;4931661;29;20194;-77
2022/09/05 08:35:51;;;;;;;2.67;2.47;;;;;;;;;;4931892;29;20724;-77
2022/09/05 08:38:17;;;;;;;3.35;2.13;;;;;;;;;;4931796;29;20718;-77
2022/09/05 08:40:46;;;;;;;2.65;2.45;;;;;;;;;;4931489;29;20193;-77
2022/09/05 08:43:21;;;;;;;2.50;2.20;;;;;;;;;;4933206;29;20217;-77
2022/09/05 08:46:08;;;;;;;3.72;2.33;;;;;;;;;;4931650;29;20268;-77
2022/09/05 08:48:36;;;;;;;2.20;2.00;;;;;;;;;;4927578;28;20789;-76
2022/09/05 08:51:13;;;;;;;2.10;1.90;;;;;;;;;;4932503;29;20173;-76
2022/09/05 08:54:08;;;;;;;2.20;2.00;;;;;;;;;;4932734;29;20169;-77
2022/09/05 08:56:34;;;;;;;1.90;1.80;;;;;;;;;;4914718;28;20213;-76
2022/09/05 08:59:00;;;;;;;2.08;1.90;;;;;;;;;;4930622;29;20664;-77
2022/09/05 09:01:34;;;;;;;2.25;1.90;;;;;;;;;;4975508;28;20198;-76
2022/09/05 09:04:22;;;;;;;2.08;1.80;;;;;;;;;;4912321;29;20637;-77
2022/09/05 09:07:01;;;;;;;2.03;1.60;;;;;;;;;;4933701;29;20177;-77
2022/09/05 09:09:33;;;;;;;2.00;1.90;;;;;;;;;;4983666;28;20201;-77
2022/09/05 09:12:17;;;;;;;2.67;1.88;;;;;;;;;;4950168;28;20279;-76
2022/09/05 09:15:02;;;;;;;2.03;1.92;;;;;;;;;;4951600;28;20176;-78
2022/09/05 09:17:34;;;;;;;2.38;1.67;;;;;;;;;;4950253;28;20173;-77
2022/09/05 09:20:10;;;;;;;2.47;2.00;;;;;;;;;;4950091;28;20177;-77
2022/09/05 09:22:41;;;;;;;2.20;2.00;;;;;;;;;;4950041;28;20196;-79
2022/09/05 09:25:09;;;;;;;2.25;2.00;;;;;;;;;;4950574;28;20224;-76
2022/09/05 09:28:01;;;;;;;2.03;1.75;;;;;;;;;;4950197;28;20208;-76
2022/09/05 09:30:28;;;;;;;1.98;1.83;;;;;;;;;;4935325;28;20214;-76
2022/09/05 09:32:56;;;;;;;2.22;1.88;;;;;;;;;;4950072;28;20243;-76
2022/09/05 09:35:41;;;;;;;2.45;2.20;;;;;;;;;;4950146;28;20219;-76
2022/09/05 09:38:26;;;;;;;1.90;1.70;;;;;;;;;;4951262;28;20615;-77
2022/09/05 09:41:04;;;;;;;2.40;1.90;;;;;;;;;;4957823;28;20170;-76
2022/09/05 09:43:48;;;;;;;3.60;1.73;;;;;;;;;;5087143;22;20232;-76
2022/09/05 09:46:22;;;;;;;2.30;1.83;;;;;;;;;;5051884;28;20165;-76
2022/09/05 09:48:51;;;;;;;2.67;2.00;;;;;;;;;;5050565;28;20228;-76
2022/09/05 09:51:36;;;;;;;4.80;1.63;;;;;;;;;;5051841;28;20165;-76
2022/09/05 09:54:16;;;;;;;1.88;1.77;;;;;;;;;;5030639;28;20179;-76
2022/09/05 09:56:45;;;;;;;3.72;1.73;;;;;;;;;;5030720;28;20174;-77
2022/09/05 09:59:11;;;;;;;4.80;2.00;;;;;;;;;;5030595;28;20170;-77
2022/09/05 10:01:53;;;;;;;1.92;1.70;;;;;;;;;;5033559;28;20625;-77
2022/09/05 10:04:19;;;;;;;2.30;1.77;;;;;;;;;;5034486;28;20261;-78
2022/09/05 10:07:04;;;;;;;3.80;1.80;;;;;;;;;;5034472;28;20273;-77
2022/09/05 10:09:30;;;;;;;1.60;1.50;;;;;;;;;;5034233;28;20209;-75
2022/09/05 10:12:15;;;;;;;1.85;1.50;;;;;;;;;;5034319;28;20198;-75
2022/09/05 10:14:47;;;;;;;1.70;1.60;;;;;;;;;;5035613;28;20166;-76
2022/09/05 10:17:31;;;;;;;1.42;1.33;;;;;;;;;;5034473;28;20182;-75
2022/09/05 10:20:05;;;;;;;1.75;1.60;;;;;;;;;;5034136;28;20178;-74
2022/09/05 10:22:31;;;;;;;1.60;1.50;;;;;;;;;;5034243;28;20225;-76
2022/09/05 10:25:16;;;;;;;1.90;1.55;;;;;;;;;;5033991;28;20201;-76
2022/09/05 10:28:01;;;;;;;1.65;1.48;;;;;;;;;;5035186;28;20170;-73
2022/09/05 10:30:38;;;;;;;1.40;1.30;;;;;;;;;;5034058;28;20216;-74
2022/09/05 10:33:08;;;;;;;5.00;1.88;;;;;;;;;;5033928;28;20201;-74
2022/09/05 10:35:34;;;;;;;2.40;1.40;;;;;;;;;;5035022;28;20173;-74
2022/09/05 10:38:10;;;;;;;1.50;1.40;;;;;;;;;;5035102;28;20254;-74
2022/09/05 10:40:37;;;;;;;1.50;1.40;;;;;;;;;;5033831;28;20182;-75
2022/09/05 10:43:12;;;;;;;1.88;1.30;;;;;;;;;;5033594;28;20209;-75
2022/09/05 10:46:07;;;;;;;1.50;1.40;;;;;;;;;;5033846;28;20181;-74
2022/09/05 10:48:53;;;;;;;1.33;1.20;;;;;;;;;;5050145;28;20214;-74
2022/09/05 10:51:21;;;;;;;1.50;1.40;;;;;;;;;;5054929;28;20180;-74
2022/09/05 10:54:06;;;;;;;1.70;1.60;;;;;;;;;;5053562;28;20248;-74
2022/09/05 10:56:39;;;;;;;1.60;1.50;;;;;;;;;;5054781;28;20231;-74
2022/09/05 10:59:09;;;;;;;1.50;1.33;;;;;;;;;;5055139;28;20616;-74
2022/09/05 11:01:43;;;;;;;3.40;1.50;;;;;;;;;;5053438;28;20177;-74
2022/09/05 11:04:15;;;;;;;1.52;1.42;;;;;;;;;;5053723;28;20710;-74
2022/09/05 11:06:44;;;;;;;1.92;1.48;;;;;;;;;;5053646;28;20230;-74
2022/09/05 11:09:13;;;;;;;2.47;1.50;;;;;;;;;;5054308;28;20643;-74
2022/09/05 11:11:46;;;;;;;1.50;1.40;;;;;;;;;;5052135;28;20181;-74
2022/09/05 11:14:34;;;;;;;2.72;1.60;;;;;;;;;;5024389;28;20706;-74
2022/09/05 11:17:12;;;;;;;1.30;1.20;;;;;;;;;;5025700;28;20182;-74
2022/09/05 11:19:43;;;;;;;1.88;1.52;;;;;;;;;;5032996;28;20166;-74
2022/09/05 11:22:11;;;;;;;2.05;1.52;;;;;;;;;;5034059;28;20206;-73
2022/09/05 11:24:49;;;;;;;1.95;1.50;;;;;;;;;;5016881;28;20179;-74
2022/09/05 11:27:27;;;;;;;1.50;1.40;;;;;;;;;;5032875;28;20648;-74
2022/09/05 11:30:01;;;;;;;2.53;1.60;;;;;;;;;;5032784;28;20229;-76
2022/09/05 11:32:36;;;;;;;1.60;1.50;;;;;;;;;;5032925;28;20190;-77
2022/09/05 11:35:17;;;;;;;1.40;1.30;;;;;;;;;;5029567;28;20202;-75
2022/09/05 11:37:50;;;;;;;1.92;1.48;;;;;;;;;;5013434;28;20217;-75
2022/09/05 11:40:28;;;;;;;1.95;1.50;;;;;;;;;;5012878;28;20179;-75
2022/09/05 11:43:13;;;;;;;1.73;1.27;;;;;;;;;;5013398;28;20226;-75
2022/09/05 11:45:49;;;;;;;1.55;1.30;;;;;;;;;;5014044;28;20206;-76
2022/09/05 11:48:33;;;;;;;2.13;1.42;;;;;;;;;;5012697;28;20202;-75
2022/09/05 11:51:18;;;;;;;1.60;1.40;;;;;;;;;;5013792;28;20175;-74
2022/09/05 11:54:10;;;;;;;1.92;1.58;;;;;;;;;;5012743;28;20293;-75
2022/09/05 11:56:36;;;;;;;2.65;1.45;;;;;;;;;;5026506;28;20654;-75
2022/09/05 11:59:41;;;;;;;1.77;1.55;;;;;;;;;;5012464;28;20186;-74
2022/09/05 12:02:07;;;;;;;1.35;1.25;;;;;;;;;;4972402;28;20220;-75
2022/09/05 12:04:38;;;;;;;1.48;1.33;;;;;;;;;;4972436;28;20184;-74
2022/09/05 12:07:14;;;;;;;1.63;1.40;;;;;;;;;;4999743;28;20637;-76
2022/09/05 12:09:47;;;;;;;1.50;1.40;;;;;;;;;;5012304;28;20198;-74
2022/09/05 12:12:21;;;;;;;1.50;1.40;;;;;;;;;;5013545;28;20225;-74
2022/09/05 12:14:56;;;;;;;1.40;1.30;;;;;;;;;;5012406;28;20537;-74
2022/09/05 12:17:37;;;;;;;1.40;1.30;;;;;;;;;;5012072;28;20243;-76
2022/09/05 12:20:06;;;;;;;1.50;1.40;;;;;;;;;;5024701;28;20182;-76
2022/09/05 12:22:33;;;;;;;1.80;1.35;;;;;;;;;;5025915;28;20203;-76
2022/09/05 12:24:59;;;;;;;2.35;1.30;;;;;;;;;;5002484;28;20201;-77
2022/09/05 12:27:28;;;;;;;1.92;1.40;;;;;;;;;;5032002;28;20253;-76
2022/09/05 12:30:04;;;;;;;1.60;1.30;;;;;;;;;;5038115;28;20213;-76
2022/09/05 12:32:30;;;;;;;1.10;1.10;;;;;;;;;;5048362;28;20193;-76
2022/09/05 12:34:58;;;;;;;1.60;1.38;;;;;;;;;;5051869;28;20174;-76
2022/09/05 12:37:26;;;;;;;1.33;1.23;;;;;;;;;;5042582;28;20231;-77
2022/09/05 12:39:52;;;;;;;1.48;1.30;;;;;;;;;;5033286;28;20170;-76
2022/09/05 12:42:27;;;;;;;2.78;1.40;;;;;;;;;;5046643;28;20292;-74
2022/09/05 12:45:25;;;;;;;1.50;1.40;;;;;;;;;;5053224;28;20161;-76
2022/09/05 12:47:59;;;;;;;1.38;1.20;;;;;;;;;;5035286;28;20188;-76
2022/09/05 12:50:32;;;;;;;1.80;1.30;;;;;;;;;;5051175;28;20227;-76
2022/09/05 12:53:02;;;;;;;2.35;1.38;;;;;;;;;;5044329;28;20197;-75
2022/09/05 12:55:41;;;;;;;1.85;1.48;;;;;;;;;;5051487;28;20220;-76
2022/09/05 12:58:19;;;;;;;1.83;1.20;;;;;;;;;;5041441;28;20177;-77
2022/09/05 13:00:46;;;;;;;1.30;1.20;;;;;;;;;;5035271;28;20189;-80
2022/09/05 13:03:15;;;;;;;3.20;1.30;;;;;;;;;;5043360;28;20215;-77
2022/09/05 13:06:02;;;;;;;1.35;1.25;;;;;;;;;;5051179;28;20291;-77
2022/09/05 13:08:32;;;;;;;2.45;1.30;;;;;;;;;;5057172;28;20205;-77
2022/09/05 13:10:58;;;;;;;3.78;1.52;;;;;;;;;;5050815;28;20319;-77
2022/09/05 13:13:52;;;;;;;3.03;1.30;;;;;;;;;;5029430;28;20210;-77
2022/09/05 13:16:21;;;;;;;3.85;1.50;;;;;;;;;;5029423;28;20178;-77
2022/09/05 13:18:48;;;;;;;1.52;1.42;;;;;;;;;;5030809;28;20201;-77
2022/09/05 13:21:18;;;;;;;2.08;1.23;;;;;;;;;;5043107;28;20178;-77
2022/09/05 13:23:48;;;;;;;3.58;1.30;;;;;;;;;;5032929;28;20207;-77
2022/09/05 13:26:22;;;;;;;1.40;1.30;;;;;;;;;;5011224;28;20193;-77
2022/09/05 13:29:00;;;;;;;1.60;1.30;;;;;;;;;;5017208;28;20213;-76
2022/09/05 13:31:57;;;;;;;1.65;1.38;;;;;;;;;;5043781;28;20170;-76
2022/09/05 13:34:27;;;;;;;3.05;1.50;;;;;;;;;;5031276;28;20274;-76
2022/09/05 13:37:19;;;;;;;1.45;1.35;;;;;;;;;;5027479;28;20178;-76
2022/09/05 13:40:08;;;;;;;1.40;1.30;;;;;;;;;;5025136;28;20199;-76
2022/09/05 13:42:38;;;;;;;3.70;1.40;;;;;;;;;;5034270;28;20237;-76
2022/09/05 13:45:04;;;;;;;1.38;1.20;;;;;;;;;;5033416;28;20173;-76
2022/09/05 13:47:49;;;;;;;2.30;1.23;;;;;;;;;;5030552;28;20555;-76
2022/09/05 13:50:27;;;;;;;1.40;1.30;;;;;;;;;;5030570;28;20190;-76
2022/09/05 13:52:56;;;;;;;3.20;1.42;;;;;;;;;;5030815;28;20193;-76
2022/09/05 13:55:24;;;;;;;1.98;1.30;;;;;;;;;;5030590;28;20182;-76
2022/09/05 13:58:03;;;;;;;2.88;1.05;;;;;;;;;;5030888;28;20273;-76
2022/09/05 14:00:38;;;;;;;1.40;1.30;;;;;;;;;;5027011;28;20207;-76
2022/09/05 14:03:07;;;;;;;1.40;1.30;;;;;;;;;;5010994;28;20205;-76
2022/09/05 14:05:51;;;;;;;2.55;1.20;;;;;;;;;;5010974;28;20179;-76
2022/09/05 14:08:36;;;;;;;1.60;1.50;;;;;;;;;;5026801;28;20644;-76
2022/09/05 14:11:15;;;;;;;2.35;1.30;;;;;;;;;;5030893;28;20170;-76
2022/09/05 14:13:47;;;;;;;2.38;1.20;;;;;;;;;;5031006;28;20277;-76
2022/09/05 14:16:16;;;;;;;2.97;1.33;;;;;;;;;;5032249;28;20167;-76
2022/09/05 14:21:30;;;;;;;1.70;1.30;;;;;;;;;;5032451;28;20663;-76
2022/09/05 14:24:04;;;;;;;2.65;1.58;;;;;;;;;;5030831;28;20182;-76
2022/09/05 14:26:35;;;;;;;1.50;1.20;;;;;;;;;;5031129;28;20269;-76
2022/09/05 14:29:04;;;;;;;2.50;1.50;;;;;;;;;;5030610;28;20652;-76
2022/09/05 14:31:39;;;;;;;2.45;1.40;;;;;;;;;;5032048;28;20170;-76
2022/09/05 14:34:07;;;;;;;1.60;1.17;;;;;;;;;;5030866;28;20189;-76
2022/09/05 14:36:41;;;;;;;1.58;1.13;;;;;;;;;;5032070;28;20254;-76
2022/09/05 14:39:42;;;;;;;1.45;1.13;;;;;;;;;;5030693;28;20159;-76
2022/09/05 14:42:27;;;;;;;1.45;1.35;;;;;;;;;;4993329;28;20217;-76
2022/09/05 14:45:05;;;;;;;1.20;1.10;;;;;;;;;;5030098;28;20668;-76
2022/09/05 14:47:45;;;;;;;1.25;1.10;;;;;;;;;;5032485;28;20170;-76
2022/09/05 14:50:26;;;;;;;1.40;1.30;;;;;;;;;;5034342;28;20175;-76
2022/09/05 14:53:03;;;;;;;1.45;1.35;;;;;;;;;;5035319;28;20186;-76
2022/09/05 14:55:29;;;;;;;1.30;1.20;;;;;;;;;;5034414;28;20294;-76
2022/09/05 14:57:56;;;;;;;1.60;1.23;;;;;;;;;;5034069;28;20200;-76
2022/09/05 15:00:22;;;;;;;3.45;1.40;;;;;;;;;;5017496;28;20641;-76
2022/09/05 15:02:59;;;;;;;1.30;1.20;;;;;;;;;;5017549;28;20202;-76
2022/09/05 15:05:28;;;;;;;2.05;1.30;;;;;;;;;;5033977;28;20169;-76
2022/09/05 15:08:11;;;;;;;1.30;1.13;;;;;;;;;;5030316;28;20183;-76
2022/09/05 15:10:42;;;;;;;1.63;1.20;;;;;;;;;;5014136;28;20224;-76
2022/09/05 15:13:11;;;;;;;1.83;1.25;;;;;;;;;;5014251;28;20217;-75
2022/09/05 15:15:38;;;;;;;2.28;1.17;;;;;;;;;;5013886;28;20178;-76
2022/09/05 15:18:16;;;;;;;1.23;1.10;;;;;;;;;;5014270;28;20175;-76
2022/09/05 15:20:47;;;;;;;1.30;1.20;;;;;;;;;;5014067;28;20178;-76
2022/09/05 15:23:19;;;;;;;1.92;1.20;;;;;;;;;;5021301;28;20198;-76
2022/09/05 15:25:50;;;;;;;1.30;1.20;;;;;;;;;;5033449;28;20175;-78
2022/09/05 15:28:31;;;;;;;1.35;1.20;;;;;;;;;;5050653;28;20189;-78
2022/09/05 15:30:58;;;;;;;1.50;1.00;;;;;;;;;;5053224;28;20158;-76
2022/09/05 15:33:27;;;;;;;1.10;1.10;;;;;;;;;;5053511;28;20204;-76
2022/09/05 15:35:53;;;;;;;1.88;1.30;;;;;;;;;;5037396;28;20205;-76
2022/09/05 15:38:28;;;;;;;1.27;1.17;;;;;;;;;;5036907;28;20178;-76
2022/09/05 15:41:01;;;;;;;1.98;1.10;;;;;;;;;;5053173;28;20213;-78
2022/09/05 15:43:27;;;;;;;2.20;1.23;;;;;;;;;;5101424;22;20220;-77
2022/09/05 15:45:59;;;;;;;1.20;1.10;;;;;;;;;;5072617;28;20194;-78
2022/09/05 15:48:26;;;;;;;2.08;1.10;;;;;;;;;;5072892;28;20231;-78
2022/09/05 15:50:54;;;;;;;1.88;1.27;;;;;;;;;;5055952;28;20181;-78
2022/09/05 15:53:22;;;;;;;1.45;1.27;;;;;;;;;;5056476;28;20663;-78
2022/09/05 15:55:49;;;;;;;1.20;1.10;;;;;;;;;;5041607;28;20170;-77
2022/09/05 15:58:16;;;;;;;1.15;0.93;;;;;;;;;;5032170;28;20229;-77
2022/09/05 16:00:45;;;;;;;1.20;1.10;;;;;;;;;;5032243;28;20178;-77
2022/09/05 16:03:20;;;;;;;1.40;1.30;;;;;;;;;;5032426;28;20198;-76
2022/09/05 16:06:02;;;;;;;1.77;1.20;;;;;;;;;;5033772;28;20162;-76
2022/09/05 16:08:48;;;;;;;1.27;1.17;;;;;;;;;;5033700;28;20202;-76
2022/09/05 16:11:30;;;;;;;2.45;1.30;;;;;;;;;;5031882;28;20277;-76
2022/09/05 16:14:18;;;;;;;1.48;1.20;;;;;;;;;;5033483;28;20190;-76
2022/09/05 16:16:51;;;;;;;1.63;1.20;;;;;;;;;;5032321;28;20556;-76
2022/09/05 16:19:21;;;;;;;4.13;1.25;;;;;;;;;;5031805;28;20198;-76
2022/09/05 16:21:47;;;;;;;2.75;1.20;;;;;;;;;;5032172;28;20181;-76
2022/09/05 16:24:22;;;;;;;1.60;1.30;;;;;;;;;;5032053;28;20236;-76
2022/09/05 16:26:51;;;;;;;1.20;1.10;;;;;;;;;;5033183;28;20174;-76
2022/09/05 16:29:25;;;;;;;1.65;1.10;;;;;;;;;;5031711;28;20174;-76
2022/09/05 16:32:00;;;;;;;1.20;1.10;;;;;;;;;;5031682;28;20201;-76
2022/09/05 16:34:30;;;;;;;1.58;1.20;;;;;;;;;;5031915;28;20178;-76
2022/09/05 16:37:11;;;;;;;1.25;1.10;;;;;;;;;;5031887;28;20174;-76
2022/09/05 16:39:39;;;;;;;2.17;1.30;;;;;;;;;;5031442;28;20232;-76
2022/09/05 16:42:14;;;;;;;1.20;1.10;;;;;;;;;;5031475;28;20174;-76
2022/09/05 16:44:45;;;;;;;3.05;1.17;;;;;;;;;;5031849;28;20208;-76
2022/09/05 16:47:30;;;;;;;1.30;1.20;;;;;;;;;;5031786;28;20174;-76
2022/09/05 16:49:59;;;;;;;1.30;1.20;;;;;;;;;;5032556;28;20205;-76
2022/09/05 16:52:43;;;;;;;1.30;1.20;;;;;;;;;;5031338;28;20194;-76
2022/09/05 16:55:15;;;;;;;1.25;1.10;;;;;;;;;;5031519;28;20185;-76
2022/09/05 16:57:55;;;;;;;1.30;1.20;;;;;;;;;;5031651;28;20633;-76
2022/09/05 17:00:21;;;;;;;1.38;1.27;;;;;;;;;;5031633;28;20235;-76
2022/09/05 17:02:58;;;;;;;1.30;1.13;;;;;;;;;;5031261;28;20198;-76
2022/09/05 17:05:26;;;;;;;1.85;1.30;;;;;;;;;;5031547;28;20184;-76
2022/09/05 17:08:05;;;;;;;1.42;1.10;;;;;;;;;;5031389;28;20226;-76
2022/09/05 17:10:41;;;;;;;1.20;1.10;;;;;;;;;;5031197;28;20224;-76
2022/09/05 17:13:09;;;;;;;1.38;1.27;;;;;;;;;;5031263;28;20194;-76
2022/09/05 17:15:38;;;;;;;1.30;1.20;;;;;;;;;;5031095;28;20174;-76
2022/09/05 17:18:04;;;;;;;4.15;1.25;;;;;;;;;;5031157;28;20196;-76
2022/09/05 17:20:32;;;;;;;1.20;1.10;;;;;;;;;;5032137;28;20162;-76
2022/09/05 17:23:07;;;;;;;2.10;1.20;;;;;;;;;;5031096;28;20556;-76
2022/09/05 17:25:43;;;;;;;1.50;1.40;;;;;;;;;;5032321;28;20212;-76
2022/09/05 17:28:31;;;;;;;1.70;1.50;;;;;;;;;;5031164;28;20587;-76
2022/09/05 17:30:58;;;;;;;1.73;1.20;;;;;;;;;;5032068;28;20169;-76
2022/09/05 17:33:28;;;;;;;1.10;1.00;;;;;;;;;;5030933;28;20198;-76
2022/09/05 17:36:07;;;;;;;2.70;1.20;;;;;;;;;;5031027;28;20162;-76
2022/09/05 17:38:39;;;;;;;1.17;1.08;;;;;;;;;;5030893;28;20205;-76
2022/09/05 17:41:05;;;;;;;1.35;1.17;;;;;;;;;;5030820;28;20206;-76
2022/09/05 17:43:35;;;;;;;1.98;1.20;;;;;;;;;;5032016;28;20244;-76